Time;durP1;ratioP1;P1;durP2;ratioP2;P2;SDS_P1;SDS_P2;PMS_P1;PMS_P2;Temp;Humidity;BMP_temperature;BMP_pressure;BME280_temperature;BME280_humidity;BME280_pressure;Samples;Min_cycle;Max_cycle;Signal;HPM_P1;HPM_P2
2021/06/12 00:00:34;;;;;;;7.70;6.53;;;16.70;92.40;;;;;;5118917;27;20687;-87
2021/06/12 00:03:03;;;;;;;7.60;6.72;;;16.70;91.90;;;;;;5124791;27;20644;-86
2021/06/12 00:05:30;;;;;;;7.88;7.05;;;16.70;92.20;;;;;;5131644;27;20191;-87
2021/06/12 00:07:56;;;;;;;7.03;6.32;;;16.60;92.20;;;;;;5131997;27;20244;-87
2021/06/12 00:10:25;;;;;;;6.85;6.25;;;16.50;92.30;;;;;;5124711;27;20199;-87
2021/06/12 00:12:52;;;;;;;7.00;6.30;;;16.40;92.60;;;;;;5131024;27;20206;-87
2021/06/12 00:15:20;;;;;;;6.63;6.03;;;16.40;92.90;;;;;;5129527;27;20654;-87
2021/06/12 00:17:47;;;;;;;8.80;5.88;;;16.40;92.60;;;;;;5135928;27;20215;-86
2021/06/12 00:20:22;;;;;;;6.82;6.18;;;16.40;92.60;;;;;;5131381;27;20198;-87
2021/06/12 00:22:48;;;;;;;7.97;5.95;;;16.30;92.50;;;;;;5122562;27;20221;-86
2021/06/12 00:25:16;;;;;;;6.80;6.18;;;16.20;92.90;;;;;;5132018;27;20202;-87
2021/06/12 00:27:43;;;;;;;6.28;5.72;;;16.30;92.90;;;;;;5125660;27;20235;-87
2021/06/12 00:30:11;;;;;;;6.10;5.50;;;16.30;92.90;;;;;;5130135;27;20196;-87
2021/06/12 00:32:38;;;;;;;6.28;5.68;;;16.30;92.70;;;;;;5120264;27;20227;-87
2021/06/12 00:35:07;;;;;;;7.18;5.80;;;16.30;92.30;;;;;;5126575;27;20241;-87
2021/06/12 00:37:35;;;;;;;7.18;5.88;;;16.30;92.30;;;;;;5124363;27;20230;-86
2021/06/12 00:40:01;;;;;;;6.53;5.95;;;16.30;92.60;;;;;;5135619;27;20262;-87
2021/06/12 00:42:28;;;;;;;6.00;5.43;;;16.30;92.30;;;;;;5122968;27;20306;-87
2021/06/12 00:44:54;;;;;;;6.28;5.72;;;16.40;91.80;;;;;;5133597;27;20203;-91
2021/06/12 00:47:20;;;;;;;6.38;5.78;;;16.30;91.80;;;;;;5123174;27;20222;-86
2021/06/12 00:49:47;;;;;;;7.65;5.55;;;16.30;91.80;;;;;;5120567;27;20547;-87
2021/06/12 00:52:13;;;;;;;6.95;6.28;;;16.20;91.70;;;;;;5129798;27;20227;-87
2021/06/12 00:54:41;;;;;;;6.22;5.63;;;16.30;91.90;;;;;;5116674;27;20230;-86
2021/06/12 00:57:08;;;;;;;6.95;5.53;;;16.30;91.80;;;;;;5127142;27;20222;-88
2021/06/12 00:59:34;;;;;;;6.07;5.47;;;16.40;91.80;;;;;;5128440;27;20192;-86
2021/06/12 01:02:01;;;;;;;6.40;5.80;;;16.40;91.80;;;;;;5131441;27;20227;-86
2021/06/12 01:04:27;;;;;;;6.75;6.03;;;16.40;91.80;;;;;;5118355;27;20663;-87
2021/06/12 01:06:54;;;;;;;5.57;5.18;;;16.50;91.80;;;;;;5116146;27;20223;-87
2021/06/12 01:09:22;;;;;;;6.05;5.50;;;16.60;91.80;;;;;;5131975;27;20228;-87
2021/06/12 01:12:00;;;;;;;6.55;5.88;;;16.60;91.80;;;;;;5133270;27;20307;-86
2021/06/12 01:14:31;;;;;;;5.72;5.22;;;16.50;91.80;;;;;;5133545;27;20191;-86
2021/06/12 01:17:06;;;;;;;6.28;5.70;;;16.50;91.80;;;;;;5119713;27;20586;-86
2021/06/12 01:20:04;;;;;;;5.97;5.40;;;16.50;91.80;;;;;;5123212;27;20190;-88
2021/06/12 01:22:41;;;;;;;5.93;5.43;;;16.50;91.80;;;;;;5124685;27;20219;-86
2021/06/12 01:25:18;;;;;;;6.05;5.55;;;16.50;91.80;;;;;;5138713;27;20206;-86
2021/06/12 01:28:11;;;;;;;5.40;4.90;;;16.70;91.00;;;;;;5128446;27;20525;-87
2021/06/12 01:30:41;;;;;;;6.05;5.55;;;16.70;90.20;;;;;;5123170;27;20638;-86
2021/06/12 01:33:10;;;;;;;7.60;5.25;;;16.90;90.20;;;;;;5119788;27;20191;-86
2021/06/12 01:35:42;;;;;;;6.10;5.47;;;16.90;89.50;;;;;;5120001;27;20218;-88
2021/06/12 01:38:14;;;;;;;5.72;5.20;;;17.00;89.20;;;;;;5131744;27;20200;-86
2021/06/12 01:40:44;;;;;;;6.32;5.72;;;17.00;88.30;;;;;;5122466;27;20188;-87
2021/06/12 01:43:16;;;;;;;5.93;5.32;;;16.90;88.20;;;;;;5132309;27;20557;-87
2021/06/12 01:45:48;;;;;;;5.70;5.13;;;16.90;88.60;;;;;;5120759;27;20275;-88
2021/06/12 01:48:19;;;;;;;6.10;5.30;;;16.90;89.30;;;;;;5134257;27;20219;-86
2021/06/12 01:50:46;;;;;;;5.43;4.93;;;16.90;88.70;;;;;;5130647;27;20219;-88
2021/06/12 01:53:16;;;;;;;6.13;5.63;;;16.90;88.30;;;;;;5137344;27;20228;-86
2021/06/12 01:55:47;;;;;;;6.90;4.93;;;16.90;88.60;;;;;;5126990;27;20228;-86
2021/06/12 01:58:18;;;;;;;5.22;4.78;;;16.90;88.20;;;;;;5130836;28;20246;-87
2021/06/12 02:00:47;;;;;;;6.28;5.68;;;16.90;88.20;;;;;;5113595;27;20223;-87
2021/06/12 02:03:14;;;;;;;5.53;5.03;;;16.80;88.30;;;;;;5132573;27;20203;-85
2021/06/12 02:05:44;;;;;;;5.88;5.28;;;16.80;89.20;;;;;;5131275;27;20203;-87
2021/06/12 02:08:15;;;;;;;7.15;4.95;;;16.80;88.80;;;;;;5133165;27;20298;-87
2021/06/12 02:10:43;;;;;;;7.25;5.22;;;16.80;88.20;;;;;;5132400;27;20234;-86
2021/06/12 02:13:10;;;;;;;6.50;5.05;;;16.80;88.70;;;;;;5128400;27;20202;-86
2021/06/12 02:15:37;;;;;;;6.15;5.65;;;16.80;88.70;;;;;;5139791;27;20204;-89
2021/06/12 02:18:08;;;;;;;5.70;5.20;;;16.70;88.70;;;;;;5136918;27;20206;-86
2021/06/12 02:20:35;;;;;;;6.82;5.60;;;16.60;87.90;;;;;;5130548;27;20206;-86
2021/06/12 02:23:04;;;;;;;5.75;5.15;;;16.60;88.50;;;;;;5136609;27;20260;-86
2021/06/12 02:25:31;;;;;;;6.03;5.47;;;16.60;89.00;;;;;;5125773;27;20720;-87
2021/06/12 02:28:02;;;;;;;5.85;5.35;;;16.60;88.70;;;;;;5130421;27;20708;-87
2021/06/12 02:30:31;;;;;;;6.75;5.30;;;16.60;88.90;;;;;;5132730;27;20199;-86
2021/06/12 02:33:01;;;;;;;6.03;5.32;;;16.60;88.40;;;;;;5131729;27;20208;-85
2021/06/12 02:35:29;;;;;;;6.35;5.72;;;16.60;89.60;;;;;;5137801;27;20206;-86
2021/06/12 02:37:56;;;;;;;7.15;5.47;;;16.50;88.90;;;;;;5123801;27;20199;-86
2021/06/12 02:40:23;;;;;;;6.10;5.50;;;16.50;89.00;;;;;;5130576;27;20578;-87
2021/06/12 02:42:50;;;;;;;5.40;4.90;;;16.50;89.40;;;;;;5129519;27;20532;-88
2021/06/12 02:45:16;;;;;;;5.90;5.30;;;16.40;89.50;;;;;;5139680;27;20220;-88
2021/06/12 02:47:50;;;;;;;6.15;5.30;;;16.40;89.10;;;;;;5135716;27;20214;-88
2021/06/12 02:50:19;;;;;;;5.63;5.13;;;16.50;89.80;;;;;;5134173;27;20192;-89
2021/06/12 02:52:50;;;;;;;5.55;4.88;;;16.40;88.50;;;;;;5126805;27;20230;-88
2021/06/12 02:55:17;;;;;;;5.30;4.90;;;16.30;88.80;;;;;;5138044;27;20229;-88
2021/06/12 02:57:47;;;;;;;5.55;5.00;;;16.30;89.40;;;;;;5135465;27;20219;-89
2021/06/12 03:00:15;;;;;;;5.25;4.85;;;16.30;89.10;;;;;;5120699;27;20199;-88
2021/06/12 03:02:43;;;;;;;6.00;5.50;;;16.20;89.70;;;;;;5129518;27;20222;-88
2021/06/12 03:05:15;;;;;;;5.43;4.90;;;16.20;89.90;;;;;;5129866;27;20195;-88
2021/06/12 03:07:45;;;;;;;5.30;4.90;;;16.20;89.60;;;;;;5127770;27;20242;-93
2021/06/12 03:10:14;;;;;;;8.63;5.00;;;16.10;90.20;;;;;;5127246;27;20208;-88
2021/06/12 03:12:42;;;;;;;5.70;5.20;;;16.10;90.10;;;;;;5121538;27;20230;-87
2021/06/12 03:15:10;;;;;;;5.90;5.35;;;16.10;90.10;;;;;;5128616;27;20191;-86
2021/06/12 03:17:37;;;;;;;6.22;5.63;;;16.00;90.10;;;;;;5130498;27;20689;-87
2021/06/12 03:20:05;;;;;;;6.75;5.20;;;16.10;90.50;;;;;;5122642;27;20199;-86
2021/06/12 03:22:34;;;;;;;7.50;5.88;;;16.00;90.40;;;;;;5123749;27;20259;-87
2021/06/12 03:25:03;;;;;;;6.70;5.57;;;16.00;90.40;;;;;;5123757;27;20204;-87
2021/06/12 03:27:31;;;;;;;5.80;5.30;;;15.90;90.70;;;;;;5125029;27;20215;-86
2021/06/12 03:29:58;;;;;;;7.63;5.22;;;15.90;90.90;;;;;;5127915;27;20199;-87
2021/06/12 03:32:25;;;;;;;5.78;5.00;;;16.00;91.00;;;;;;5129002;27;20694;-85
2021/06/12 03:34:52;;;;;;;6.65;5.40;;;16.00;90.50;;;;;;5131149;27;20205;-88
2021/06/12 03:37:18;;;;;;;5.85;5.10;;;16.00;90.50;;;;;;5134382;27;20218;-86
2021/06/12 03:39:45;;;;;;;6.03;4.97;;;16.00;90.40;;;;;;5133325;27;20199;-88
2021/06/12 03:42:12;;;;;;;6.22;5.63;;;16.00;90.50;;;;;;5126396;27;20222;-86
2021/06/12 03:44:41;;;;;;;6.97;4.90;;;16.20;90.60;;;;;;5125582;27;20195;-87
2021/06/12 03:47:08;;;;;;;5.30;4.80;;;16.20;89.20;;;;;;5128844;27;20243;-87
2021/06/12 03:49:36;;;;;;;5.45;5.05;;;16.30;89.30;;;;;;5130572;27;20195;-87
2021/06/12 03:52:03;;;;;;;5.50;5.00;;;16.30;88.70;;;;;;5124216;27;20231;-89
2021/06/12 03:54:31;;;;;;;4.90;4.50;;;16.40;88.90;;;;;;5123057;27;20223;-85
2021/06/12 03:56:59;;;;;;;5.85;5.35;;;16.40;87.00;;;;;;5121543;27;20709;-88
2021/06/12 03:59:26;;;;;;;5.15;4.68;;;16.30;88.50;;;;;;5132256;27;20191;-88
2021/06/12 04:01:55;;;;;;;5.05;4.40;;;16.20;88.60;;;;;;5132484;27;20223;-86
2021/06/12 04:04:23;;;;;;;5.07;4.60;;;16.30;89.40;;;;;;5131017;27;20218;-87
2021/06/12 04:06:50;;;;;;;5.45;4.68;;;16.30;89.00;;;;;;5131205;27;20246;-88
2021/06/12 04:09:17;;;;;;;5.70;5.20;;;16.30;88.60;;;;;;5124539;27;20202;-86
2021/06/12 04:11:43;;;;;;;5.35;4.85;;;16.30;88.30;;;;;;5129294;27;20673;-88
2021/06/12 04:14:10;;;;;;;6.53;5.07;;;16.40;88.00;;;;;;5129033;27;20738;-86
2021/06/12 04:16:37;;;;;;;7.60;6.90;;;16.40;88.80;;;;;;5125253;27;20227;-88
2021/06/12 04:19:05;;;;;;;5.15;4.68;;;16.50;87.00;;;;;;5128602;27;20853;-85
2021/06/12 04:21:32;;;;;;;6.50;4.72;;;16.50;87.90;;;;;;5128788;27;20241;-87
2021/06/12 04:23:58;;;;;;;5.30;4.90;;;16.50;87.20;;;;;;5121303;27;20248;-87
2021/06/12 04:26:24;;;;;;;5.43;4.88;;;16.50;87.40;;;;;;5125873;27;20750;-86
2021/06/12 04:28:51;;;;;;;6.85;4.88;;;16.60;87.20;;;;;;5131447;27;20219;-87
2021/06/12 04:31:17;;;;;;;5.20;4.80;;;16.70;87.20;;;;;;5135815;27;20214;-86
2021/06/12 04:33:44;;;;;;;7.00;4.90;;;16.60;87.20;;;;;;5126235;27;20211;-86
2021/06/12 04:36:11;;;;;;;5.15;4.75;;;16.60;88.00;;;;;;5128561;27;20712;-87
2021/06/12 04:38:38;;;;;;;5.30;4.90;;;16.70;86.70;;;;;;5128716;27;20527;-86
2021/06/12 04:41:04;;;;;;;5.53;5.03;;;16.80;86.20;;;;;;5131816;27;20237;-88
2021/06/12 04:43:31;;;;;;;7.65;4.57;;;16.90;86.10;;;;;;5136591;27;20195;-85
2021/06/12 04:45:57;;;;;;;5.63;4.85;;;17.10;84.90;;;;;;5129878;27;20683;-89
2021/06/12 04:48:23;;;;;;;5.90;4.63;;;17.10;83.80;;;;;;5124623;27;20237;-86
2021/06/12 04:50:50;;;;;;;5.47;4.97;;;17.20;83.50;;;;;;5128387;27;20227;-86
2021/06/12 04:53:18;;;;;;;5.43;4.93;;;17.30;83.40;;;;;;5131364;27;20223;-86
2021/06/12 04:55:44;;;;;;;5.80;5.20;;;17.30;83.30;;;;;;5130520;27;20643;-85
2021/06/12 04:58:10;;;;;;;6.07;4.70;;;17.30;82.40;;;;;;5135821;27;20214;-85
2021/06/12 05:00:37;;;;;;;4.60;4.30;;;17.40;81.40;;;;;;5136617;27;20251;-86
2021/06/12 05:03:04;;;;;;;5.32;4.82;;;17.50;80.30;;;;;;5135911;27;20199;-86
2021/06/12 05:05:30;;;;;;;5.13;4.63;;;17.60;80.80;;;;;;5134906;27;20191;-86
2021/06/12 05:07:57;;;;;;;5.00;4.60;;;17.70;79.30;;;;;;5135077;27;20222;-86
2021/06/12 05:10:25;;;;;;;4.72;4.32;;;17.70;79.20;;;;;;5135019;27;20200;-89
2021/06/12 05:12:51;;;;;;;4.90;4.50;;;17.80;79.30;;;;;;5113870;28;20192;-85
2021/06/12 05:15:20;;;;;;;5.43;4.50;;;17.90;79.30;;;;;;5115402;28;20196;-87
2021/06/12 05:17:48;;;;;;;4.85;4.32;;;18.10;79.50;;;;;;5110773;28;20228;-86
2021/06/12 05:20:14;;;;;;;5.35;4.50;;;18.10;78.60;;;;;;5103605;28;20192;-86
2021/06/12 05:22:41;;;;;;;4.43;4.00;;;18.30;77.80;;;;;;5114146;28;20219;-87
2021/06/12 05:25:08;;;;;;;4.45;4.05;;;18.30;78.30;;;;;;5115211;28;20206;-86
2021/06/12 05:27:35;;;;;;;6.15;4.55;;;18.30;78.30;;;;;;5111788;28;20710;-85
2021/06/12 05:30:02;;;;;;;4.70;4.30;;;18.40;77.60;;;;;;5110302;28;20196;-85
2021/06/12 05:32:28;;;;;;;5.63;4.30;;;18.40;76.80;;;;;;5116657;28;20212;-85
2021/06/12 05:34:56;;;;;;;4.93;4.40;;;18.50;76.30;;;;;;5115809;28;20200;-88
2021/06/12 05:40:47;;;;;;;5.25;4.18;;;18.70;74.00;;;;;;5114720;28;20186;-86
2021/06/12 05:43:15;;;;;;;4.45;4.05;;;19.00;72.20;;;;;;5115877;28;20180;-87
2021/06/12 05:45:42;;;;;;;4.60;4.20;;;19.20;72.40;;;;;;5112471;28;20595;-87
2021/06/12 05:49:01;;;;;;;4.32;4.00;;;19.40;68.60;;;;;;5114663;28;20298;-86
2021/06/12 05:51:28;;;;;;;4.68;4.28;;;19.70;67.50;;;;;;5112645;28;20272;-86
2021/06/12 05:53:54;;;;;;;4.50;4.10;;;20.00;66.40;;;;;;5117890;28;20216;-88
2021/06/12 05:56:20;;;;;;;6.05;4.32;;;20.00;64.90;;;;;;5110802;28;20223;-87
2021/06/12 05:58:48;;;;;;;5.13;4.60;;;20.10;64.10;;;;;;5107060;28;20199;-88
2021/06/12 06:01:15;;;;;;;7.75;4.38;;;20.00;63.30;;;;;;5111702;28;20633;-89
2021/06/12 06:03:41;;;;;;;5.13;4.40;;;19.90;65.90;;;;;;5114498;28;20201;-86
2021/06/12 06:06:08;;;;;;;4.70;4.30;;;20.00;65.20;;;;;;5115345;28;20228;-85
2021/06/12 06:08:35;;;;;;;4.57;4.18;;;20.00;65.00;;;;;;5120159;28;20216;-86
2021/06/12 06:11:01;;;;;;;5.30;4.22;;;20.00;64.40;;;;;;5106134;28;20231;-88
2021/06/12 06:13:27;;;;;;;5.03;4.53;;;20.00;63.60;;;;;;5114361;28;20204;-88
2021/06/12 06:16:25;;;;;;;5.72;4.28;;;20.10;64.80;;;;;;5103550;28;20231;-88
2021/06/12 06:19:29;;;;;;;4.50;4.10;;;20.10;63.50;;;;;;5119535;28;20211;-87
2021/06/12 06:21:55;;;;;;;5.05;4.45;;;20.20;63.30;;;;;;5113623;28;20232;-89
2021/06/12 06:24:22;;;;;;;4.88;4.47;;;20.20;62.90;;;;;;5123610;28;20192;-87
2021/06/12 06:26:48;;;;;;;4.60;4.20;;;20.30;62.80;;;;;;5112056;28;20721;-91
2021/06/12 06:29:14;;;;;;;4.78;4.38;;;20.30;63.70;;;;;;5110920;28;20211;-88
2021/06/12 06:31:45;;;;;;;5.03;4.20;;;20.40;62.70;;;;;;5110524;28;20216;-89
2021/06/12 06:34:11;;;;;;;5.20;4.80;;;20.50;62.60;;;;;;5103212;28;20203;-88
2021/06/12 06:36:38;;;;;;;4.90;4.43;;;20.50;65.80;;;;;;5109324;28;20709;-88
2021/06/12 06:39:04;;;;;;;5.47;4.97;;;20.60;63.00;;;;;;5107125;28;20213;-86
2021/06/12 06:41:31;;;;;;;5.28;4.80;;;20.60;59.80;;;;;;5099391;28;20234;-88
2021/06/12 06:43:57;;;;;;;4.82;4.32;;;20.80;59.20;;;;;;5103046;28;20197;-87
2021/06/12 06:46:24;;;;;;;4.90;4.40;;;20.80;58.20;;;;;;5105906;28;20274;-86
2021/06/12 06:48:51;;;;;;;6.88;4.32;;;20.80;60.20;;;;;;5106001;28;20687;-85
2021/06/12 06:51:19;;;;;;;6.03;4.40;;;21.00;60.40;;;;;;5116830;28;20231;-86
2021/06/12 06:53:45;;;;;;;5.20;4.70;;;21.10;58.90;;;;;;5116900;28;20220;-87
2021/06/12 06:56:11;;;;;;;5.35;4.70;;;21.20;58.00;;;;;;5119953;27;20267;-85
2021/06/12 06:58:38;;;;;;;4.90;4.50;;;21.30;57.10;;;;;;5142905;27;20188;-82
2021/06/12 07:01:04;;;;;;;5.28;4.88;;;21.60;57.40;;;;;;5141135;27;20237;-82
2021/06/12 07:03:31;;;;;;;5.95;4.65;;;21.80;57.60;;;;;;5138185;27;20195;-82
2021/06/12 07:05:59;;;;;;;4.82;4.43;;;21.80;55.40;;;;;;5140252;27;20226;-82
2021/06/12 07:08:25;;;;;;;6.30;4.10;;;22.00;54.40;;;;;;5140084;27;20258;-83
2021/06/12 07:10:51;;;;;;;4.93;4.50;;;22.30;54.00;;;;;;5132198;27;20328;-84
2021/06/12 07:13:22;;;;;;;5.40;4.85;;;22.80;53.00;;;;;;5134953;27;20202;-80
2021/06/12 07:15:49;;;;;;;5.20;4.80;;;23.50;49.90;;;;;;5134447;27;20223;-84
2021/06/12 07:18:16;;;;;;;4.75;4.28;;;24.20;45.30;;;;;;5121694;27;20210;-81
2021/06/12 07:20:45;;;;;;;5.45;4.75;;;25.40;41.80;;;;;;5130318;27;20195;-81
2021/06/12 07:23:15;;;;;;;8.30;4.40;;;26.00;38.80;;;;;;5137937;27;20677;-82
2021/06/12 07:25:42;;;;;;;5.22;4.57;;;26.20;37.00;;;;;;5129052;27;20237;-81
2021/06/12 07:28:08;;;;;;;4.88;4.47;;;25.90;37.90;;;;;;5128844;27;20223;-80
2021/06/12 07:30:39;;;;;;;5.32;4.75;;;25.80;38.60;;;;;;5132465;27;20654;-81
2021/06/12 07:33:06;;;;;;;5.30;4.72;;;25.70;39.90;;;;;;5130109;27;20202;-78
2021/06/12 07:35:32;;;;;;;5.72;5.15;;;25.40;40.80;;;;;;5118716;27;20200;-78
2021/06/12 07:37:59;;;;;;;7.72;5.30;;;25.00;42.10;;;;;;5127860;27;20196;-80
2021/06/12 07:40:27;;;;;;;5.30;4.90;;;24.60;44.10;;;;;;5129983;27;20208;-88
2021/06/12 07:42:54;;;;;;;5.82;4.93;;;24.40;43.00;;;;;;5118854;27;20284;-88
2021/06/12 07:45:21;;;;;;;5.32;4.82;;;24.20;42.90;;;;;;5128645;27;20223;-88
2021/06/12 07:47:47;;;;;;;5.10;4.60;;;24.20;44.50;;;;;;5127610;27;20308;-87
2021/06/12 07:50:14;;;;;;;7.60;4.82;;;24.10;46.10;;;;;;5139638;27;20660;-87
2021/06/12 07:52:41;;;;;;;5.10;4.63;;;24.10;44.50;;;;;;5142286;27;20223;-85
2021/06/12 07:55:08;;;;;;;6.90;5.00;;;24.10;43.00;;;;;;5135478;22;20242;-88
2021/06/12 07:57:36;;;;;;;5.40;4.95;;;24.10;43.30;;;;;;5050927;28;20573;-86
2021/06/12 08:00:03;;;;;;;5.50;5.00;;;24.10;44.80;;;;;;5055324;28;20206;-86
2021/06/12 08:02:29;;;;;;;5.75;5.15;;;24.30;43.50;;;;;;5034853;28;20226;-85
2021/06/12 08:04:56;;;;;;;6.95;5.20;;;24.40;42.30;;;;;;5034192;28;20198;-85
2021/06/12 08:07:22;;;;;;;5.82;4.70;;;24.60;41.10;;;;;;5048217;28;20756;-85
2021/06/12 08:09:50;;;;;;;5.55;5.05;;;24.70;40.20;;;;;;5055837;28;20204;-87
2021/06/12 08:12:16;;;;;;;5.60;5.10;;;24.90;40.40;;;;;;5045041;28;20245;-84
2021/06/12 08:14:44;;;;;;;6.47;4.88;;;25.40;38.70;;;;;;5052013;28;20198;-85
2021/06/12 08:17:11;;;;;;;5.22;4.80;;;26.40;37.10;;;;;;5053396;28;20221;-92
2021/06/12 08:19:37;;;;;;;6.25;5.18;;;27.90;33.70;;;;;;5050338;28;20264;-86
2021/06/12 08:22:04;;;;;;;6.00;5.40;;;30.30;27.80;;;;;;5044133;28;20229;-91
2021/06/12 08:24:31;;;;;;;5.30;4.80;;;31.80;23.30;;;;;;5044257;28;20575;-89
2021/06/12 08:26:57;;;;;;;6.95;5.13;;;33.20;21.00;;;;;;5043295;28;20907;-89
2021/06/12 08:29:24;;;;;;;5.82;5.43;;;35.00;19.10;;;;;;5043619;28;20225;-89
2021/06/12 08:31:52;;;;;;;5.35;4.97;;;36.30;16.80;;;;;;5043451;28;20221;-89
2021/06/12 08:34:18;;;;;;;6.70;6.20;;;36.60;16.00;;;;;;5045593;28;20200;-91
2021/06/12 08:36:44;;;;;;;6.75;6.15;;;35.00;16.40;;;;;;5052070;28;20228;-90
2021/06/12 08:39:11;;;;;;;7.18;6.68;;;35.40;17.70;;;;;;5046592;28;20205;-89
2021/06/12 08:41:37;;;;;;;6.40;5.80;;;35.10;17.00;;;;;;5050622;28;20933;-90
2021/06/12 08:44:04;;;;;;;6.32;5.75;;;35.40;16.90;;;;;;5049381;28;20312;-84
2021/06/12 08:46:31;;;;;;;5.97;5.47;;;34.90;16.90;;;;;;5048427;28;20562;-87
2021/06/12 08:48:59;;;;;;;6.13;5.53;;;34.30;18.70;;;;;;5043274;28;20229;-87
2021/06/12 08:51:25;;;;;;;8.27;6.03;;;35.80;17.60;;;;;;5049175;28;20217;-87
2021/06/12 08:53:51;;;;;;;6.57;5.63;;;36.80;15.00;;;;;;5051565;28;20227;-89
2021/06/12 08:56:18;;;;;;;6.22;5.63;;;36.10;15.90;;;;;;5048636;28;20221;-87
2021/06/12 08:58:44;;;;;;;5.82;5.30;;;35.60;14.90;;;;;;5049221;28;20647;-86
2021/06/12 09:01:11;;;;;;;5.90;5.40;;;35.70;14.60;;;;;;5053906;28;20220;-87
2021/06/12 09:03:41;;;;;;;7.00;5.55;;;36.80;14.40;;;;;;5054318;28;20205;-88
2021/06/12 09:06:10;;;;;;;7.35;5.60;;;37.20;13.80;;;;;;5045931;28;20577;-87
2021/06/12 09:08:38;;;;;;;6.20;5.70;;;37.20;13.80;;;;;;5026555;28;20237;-87
2021/06/12 09:11:07;;;;;;;6.22;5.72;;;37.30;13.30;;;;;;5029268;28;20234;-87
2021/06/12 09:13:44;;;;;;;5.82;5.32;;;37.00;13.00;;;;;;5027645;28;20256;-88
2021/06/12 09:16:26;;;;;;;6.50;6.00;;;36.80;14.10;;;;;;5031221;28;20217;-86
2021/06/12 09:18:54;;;;;;;6.10;5.55;;;36.50;14.40;;;;;;5048667;28;20680;-89
2021/06/12 09:21:30;;;;;;;5.47;4.90;;;35.20;14.70;;;;;;5050778;28;20600;-87
2021/06/12 09:23:58;;;;;;;5.80;5.30;;;34.50;16.00;;;;;;5039772;28;20232;-87
2021/06/12 09:26:44;;;;;;;5.53;5.07;;;34.50;15.80;;;;;;5051001;28;20225;-89
2021/06/12 09:29:12;;;;;;;6.97;6.03;;;35.10;16.50;;;;;;5047864;28;20232;-90
2021/06/12 09:31:44;;;;;;;6.13;5.63;;;35.10;16.40;;;;;;5037481;28;20221;-89
2021/06/12 09:34:13;;;;;;;6.63;5.75;;;35.60;15.60;;;;;;5029625;28;20201;-90
2021/06/12 09:36:42;;;;;;;8.00;5.70;;;34.70;15.90;;;;;;5051105;28;20257;-89
2021/06/12 09:39:12;;;;;;;6.28;5.78;;;32.40;17.80;;;;;;5050806;28;20344;-90
2021/06/12 09:41:41;;;;;;;6.30;5.70;;;32.10;19.70;;;;;;5051311;28;20304;-88
2021/06/12 09:44:08;;;;;;;5.97;5.22;;;32.00;19.40;;;;;;5036405;28;20193;-87
2021/06/12 09:46:45;;;;;;;8.88;5.93;;;31.70;19.70;;;;;;5054625;28;20343;-87
2021/06/12 09:49:16;;;;;;;6.57;5.13;;;31.50;21.50;;;;;;5052390;28;20217;-91
2021/06/12 09:52:09;;;;;;;5.75;5.25;;;31.20;20.00;;;;;;5038666;28;20233;-90
2021/06/12 09:54:38;;;;;;;7.38;6.50;;;31.80;20.40;;;;;;5875852;22;20192;-91
2021/06/12 09:57:57;;;;;;;6.40;5.57;;;32.90;19.20;;;;;;5071873;28;20679;-90
2021/06/12 10:03:17;;;;;;;6.22;5.20;;;34.80;16.10;;;;;;5062100;28;20298;-85
2021/06/12 10:05:44;;;;;;;6.05;5.65;;;34.40;16.50;;;;;;5064156;28;20276;-88
2021/06/12 10:08:14;;;;;;;5.55;5.10;;;34.50;17.80;;;;;;5075125;28;20216;-92
2021/06/12 10:10:42;;;;;;;6.75;5.63;;;35.70;16.30;;;;;;5091161;28;20203;-90
2021/06/12 10:13:09;;;;;;;5.90;5.40;;;36.30;18.00;;;;;;5090802;28;20207;-88
2021/06/12 10:15:36;;;;;;;6.20;5.65;;;36.50;15.20;;;;;;5087240;28;20215;-88
2021/06/12 10:18:03;;;;;;;6.13;5.60;;;35.50;15.70;;;;;;5062610;28;20262;-87
2021/06/12 10:20:30;;;;;;;5.60;5.20;;;34.10;17.10;;;;;;5072756;28;20205;-91
2021/06/12 10:22:57;;;;;;;5.65;5.25;;;33.40;18.30;;;;;;5057254;28;20201;-90
2021/06/12 10:25:31;;;;;;;5.82;5.10;;;32.30;17.80;;;;;;5070329;28;20193;-91
2021/06/12 10:28:05;;;;;;;5.30;4.90;;;32.90;18.70;;;;;;5073574;28;20224;-91
2021/06/12 10:36:18;;;;;;;5.38;4.97;;;35.10;17.00;;;;;;5071524;28;20248;-91
2021/06/12 10:41:28;;;;;;;5.05;4.70;;;34.50;17.90;;;;;;5068813;28;20220;-90
2021/06/12 10:43:57;;;;;;;5.00;4.60;;;33.50;18.40;;;;;;5068976;28;20190;-91
2021/06/12 10:46:26;;;;;;;4.55;4.25;;;32.40;18.50;;;;;;5068188;28;20239;-90
2021/06/12 10:48:56;;;;;;;4.88;4.47;;;31.90;21.00;;;;;;5072102;28;20213;-87
2021/06/12 10:51:43;;;;;;;4.38;3.95;;;32.40;20.20;;;;;;5068192;28;20240;-89
2021/06/12 10:54:19;;;;;;;5.65;3.90;;;32.40;18.30;;;;;;5071798;28;20224;-88
2021/06/12 10:56:50;;;;;;;4.50;3.78;;;31.20;20.30;;;;;;5067619;28;20274;-90
2021/06/12 10:59:45;;;;;;;7.30;4.07;;;30.40;21.70;;;;;;5072822;28;20205;-91
2021/06/12 11:04:58;;;;;;;4.43;4.03;;;30.10;23.60;;;;;;5068011;28;20236;-90
2021/06/12 11:07:30;;;;;;;4.55;4.07;;;30.20;24.50;;;;;;5071922;28;20220;-88
2021/06/12 11:10:25;;;;;;;4.40;4.00;;;30.20;24.90;;;;;;5075836;28;20204;-87
2021/06/12 11:12:56;;;;;;;5.88;4.10;;;30.10;28.30;;;;;;5073298;28;20226;-89
2021/06/12 11:15:33;;;;;;;3.55;3.25;;;30.10;25.20;;;;;;5081350;28;20283;-89
2021/06/12 11:18:21;;;;;;;3.40;3.10;;;30.10;24.70;;;;;;5072759;28;20285;-88
2021/06/12 11:21:40;;;;;;;6.90;4.53;;;30.30;24.10;;;;;;5073036;28;20652;-89
2021/06/12 11:24:07;;;;;;;5.75;3.92;;;30.10;23.30;;;;;;5076059;28;20705;-92
2021/06/12 11:27:02;;;;;;;4.20;3.63;;;30.00;25.60;;;;;;5058866;28;20203;-89
2021/06/12 11:29:30;;;;;;;3.90;3.58;;;29.10;24.90;;;;;;5076578;28;20671;-89
2021/06/12 11:32:29;;;;;;;4.13;3.60;;;29.30;27.20;;;;;;5076893;28;20205;-89
2021/06/12 11:34:56;;;;;;;4.72;4.10;;;29.10;26.30;;;;;;5059528;28;20249;-91
2021/06/12 11:37:24;;;;;;;5.22;3.90;;;28.80;26.90;;;;;;5073627;28;20295;-91
2021/06/12 11:53:38;;;;;;;5.28;3.80;;;27.00;32.20;;;;;;5075904;28;20211;-87
2021/06/12 11:56:04;;;;;;;6.63;4.70;;;27.70;31.40;;;;;;5044938;28;20255;-91
2021/06/12 11:58:31;;;;;;;3.92;3.58;;;27.90;29.60;;;;;;5077255;28;20683;-91
2021/06/12 12:01:39;;;;;;;5.30;4.70;;;28.30;30.20;;;;;;5080457;28;20607;-91
2021/06/12 12:07:48;;;;;;;5.05;4.55;;;27.80;28.30;;;;;;5064038;28;20216;-90
2021/06/12 12:13:58;;;;;;;15.63;9.02;;;28.40;24.80;;;;;;5055808;28;20263;-90
2021/06/12 12:16:26;;;;;;;6.20;3.80;;;28.70;25.50;;;;;;5037761;28;20205;-90
2021/06/12 12:18:54;;;;;;;4.43;4.03;;;28.70;24.90;;;;;;5047027;28;20207;-89
2021/06/12 12:22:02;;;;;;;7.47;4.68;;;28.30;25.00;;;;;;5072305;28;20224;-90
2021/06/12 12:24:31;;;;;;;6.57;4.53;;;28.10;26.40;;;;;;5078053;28;20201;-90
2021/06/12 12:27:02;;;;;;;5.57;4.00;;;28.00;28.70;;;;;;5082180;28;20717;-88
2021/06/12 12:29:31;;;;;;;5.22;3.97;;;27.80;26.20;;;;;;5098510;28;20228;-88
2021/06/12 12:32:00;;;;;;;5.20;4.32;;;27.70;26.60;;;;;;5078168;28;20220;-88
2021/06/12 12:34:33;;;;;;;5.38;4.15;;;27.50;27.70;;;;;;5071909;28;20201;-87
2021/06/12 12:37:00;;;;;;;5.85;4.43;;;27.80;28.40;;;;;;5087916;28;20363;-88
2021/06/12 12:39:44;;;;;;;9.90;8.70;;;28.10;28.80;;;;;;5097605;28;20235;-90
2021/06/12 12:44:59;;;;;;;4.47;3.75;;;27.80;27.50;;;;;;4999078;28;20216;-90
2021/06/12 12:47:29;;;;;;;5.07;3.63;;;27.60;26.70;;;;;;4998568;28;20224;-88
2021/06/12 12:53:20;;;;;;;4.68;4.25;;;27.50;27.00;;;;;;5116216;22;20277;-88
2021/06/12 12:55:56;;;;;;;6.15;4.05;;;28.00;26.70;;;;;;5097000;28;20253;-88
2021/06/12 12:58:28;;;;;;;3.85;3.55;;;28.50;26.70;;;;;;5113250;28;20248;-89
2021/06/12 13:01:04;;;;;;;4.10;3.80;;;28.70;25.90;;;;;;5101253;28;20231;-90
2021/06/12 13:04:03;;;;;;;4.78;3.50;;;29.00;24.10;;;;;;5106040;28;20198;-88
2021/06/12 13:06:44;;;;;;;7.47;4.07;;;28.90;26.40;;;;;;5097891;28;20227;-86
2021/06/12 13:09:15;;;;;;;4.00;3.70;;;28.30;23.60;;;;;;5086384;28;20632;-88
2021/06/12 13:11:48;;;;;;;3.88;3.40;;;27.80;25.50;;;;;;5109097;27;20222;-88
2021/06/12 13:14:29;;;;;;;3.95;3.65;;;27.40;24.20;;;;;;5110413;28;20187;-87
2021/06/12 13:17:07;;;;;;;6.95;6.28;;;27.20;26.30;;;;;;5099093;27;20288;-88
2021/06/12 13:19:43;;;;;;;4.78;4.10;;;27.40;28.10;;;;;;5098280;28;20244;-87
2021/06/12 13:22:25;;;;;;;5.22;4.05;;;27.80;28.70;;;;;;5084752;28;20218;-87
2021/06/12 13:25:01;;;;;;;4.68;4.28;;;28.10;28.40;;;;;;5088262;28;20201;-87
2021/06/12 13:27:40;;;;;;;4.18;3.78;;;28.10;27.30;;;;;;5066918;28;20232;-87
2021/06/12 13:30:27;;;;;;;7.57;5.75;;;28.00;28.10;;;;;;5081635;28;20274;-88
2021/06/12 13:32:56;;;;;;;7.88;5.72;;;27.90;27.40;;;;;;5117166;27;20227;-88
2021/06/12 13:35:24;;;;;;;4.95;4.10;;;28.20;26.50;;;;;;5126602;27;20546;-89
2021/06/12 13:38:05;;;;;;;4.70;4.10;;;28.30;28.00;;;;;;5134648;27;20219;-88
2021/06/12 13:40:34;;;;;;;5.55;5.00;;;28.40;27.70;;;;;;5117355;27;20201;-90
2021/06/12 13:43:12;;;;;;;4.80;4.40;;;28.60;26.70;;;;;;5141342;27;20209;-91
2021/06/12 13:48:23;;;;;;;8.18;4.03;;;28.50;27.20;;;;;;5096266;27;20219;-91
2021/06/12 13:50:52;;;;;;;5.40;4.80;;;28.50;25.80;;;;;;5126044;27;20550;-91